Time;durP1;ratioP1;P1;durP2;ratioP2;P2;SDS_P1;SDS_P2;PMS_P1;PMS_P2;Temp;Humidity;BMP_temperature;BMP_pressure;BME280_temperature;BME280_humidity;BME280_pressure;Samples;Min_cycle;Max_cycle;Signal;HPM_P1;HPM_P2
2022/07/11 00:00:14;;;;;;;0.30;0.30;;;14.80;99.90;;;;;;4961359;28;20072;-76
2022/07/11 00:02:40;;;;;;;0.30;0.30;;;14.80;99.90;;;;;;4955689;28;20088;-74
2022/07/11 00:05:09;;;;;;;0.20;0.20;;;14.80;99.90;;;;;;4960534;28;20094;-73
2022/07/11 00:07:36;;;;;;;0.40;0.40;;;14.80;99.90;;;;;;4962326;28;20082;-75
2022/07/11 00:10:03;;;;;;;0.28;0.28;;;14.80;99.90;;;;;;4972280;28;20044;-71
2022/07/11 00:12:29;;;;;;;0.30;0.30;;;14.80;99.90;;;;;;4959224;28;20051;-77
2022/07/11 00:15:00;;;;;;;0.20;0.20;;;14.80;99.90;;;;;;4957336;28;20047;-75
2022/07/11 00:17:26;;;;;;;0.20;0.20;;;14.80;99.90;;;;;;4969064;28;20042;-80
2022/07/11 00:19:52;;;;;;;0.30;0.30;;;14.80;99.90;;;;;;4953808;28;20043;-72
2022/07/11 00:22:18;;;;;;;;;;;14.80;99.90;;;;;;4977156;28;20135;-79
2022/07/11 00:24:44;;;;;;;0.30;0.30;;;14.70;99.90;;;;;;4963540;28;19926;-74
2022/07/11 00:27:10;;;;;;;0.30;0.30;;;14.80;99.90;;;;;;4949374;28;20038;-79
2022/07/11 00:29:37;;;;;;;0.32;0.30;;;14.80;99.90;;;;;;4958058;28;20223;-76
2022/07/11 00:32:03;;;;;;;0.88;0.35;;;14.80;99.90;;;;;;4959087;28;20043;-77
2022/07/11 00:34:29;;;;;;;1.85;0.95;;;14.80;99.90;;;;;;4956496;28;20512;-76
2022/07/11 00:36:56;;;;;;;;;;;14.80;99.90;;;;;;4958163;28;20053;-75
2022/07/11 00:39:21;;;;;;;0.32;0.32;;;14.70;99.90;;;;;;4957305;28;20001;-72
2022/07/11 00:41:47;;;;;;;;;;;14.70;99.90;;;;;;4952004;28;20134;-74
2022/07/11 00:44:14;;;;;;;0.35;0.35;;;14.70;99.90;;;;;;4949554;28;19918;-73
2022/07/11 00:46:40;;;;;;;0.28;0.28;;;14.70;99.90;;;;;;4962777;28;20058;-77
2022/07/11 00:49:06;;;;;;;0.20;0.20;;;14.70;99.90;;;;;;4925756;28;20126;-78
2022/07/11 00:51:31;;;;;;;;;;;14.70;99.90;;;;;;4956326;28;20080;-75
2022/07/11 00:53:58;;;;;;;0.43;0.40;;;14.70;99.90;;;;;;4971585;28;19928;-76
2022/07/11 00:56:26;;;;;;;0.28;0.28;;;14.70;99.90;;;;;;4977092;28;20484;-76
2022/07/11 00:58:54;;;;;;;0.35;0.35;;;14.70;99.90;;;;;;4963557;28;20173;-76
2022/07/11 01:01:21;;;;;;;0.32;0.32;;;14.70;99.90;;;;;;4945181;28;20100;-75
2022/07/11 01:03:56;;;;;;;0.30;0.30;;;14.70;99.90;;;;;;4965708;28;20512;-75
2022/07/11 01:06:21;;;;;;;;;;;14.70;99.90;;;;;;4946648;28;20180;-74
2022/07/11 01:08:47;;;;;;;0.30;0.30;;;14.70;99.90;;;;;;4949888;28;20287;-73
2022/07/11 01:11:15;;;;;;;;;;;14.70;99.90;;;;;;4952868;28;20097;-76
2022/07/11 01:13:42;;;;;;;0.30;0.30;;;14.70;99.90;;;;;;4951474;28;19918;-72
2022/07/11 01:16:17;;;;;;;0.30;0.30;;;14.70;99.90;;;;;;4958839;28;20043;-74
2022/07/11 01:18:48;;;;;;;0.20;0.20;;;14.80;99.90;;;;;;4963754;28;20039;-77
2022/07/11 01:21:26;;;;;;;0.25;0.25;;;14.70;99.90;;;;;;4965496;28;20057;-77
2022/07/11 01:23:54;;;;;;;0.40;0.40;;;14.80;99.90;;;;;;4952652;28;20053;-76
2022/07/11 01:26:22;;;;;;;0.30;0.30;;;14.80;99.90;;;;;;4954715;28;20082;-74
2022/07/11 01:28:50;;;;;;;0.50;0.50;;;14.80;99.90;;;;;;4962364;28;20034;-75
2022/07/11 01:31:16;;;;;;;0.30;0.30;;;14.80;99.90;;;;;;4956006;28;20413;-76
2022/07/11 01:33:42;;;;;;;0.47;0.47;;;14.80;99.90;;;;;;4963082;28;20442;-73
2022/07/11 01:36:15;;;;;;;0.20;0.20;;;14.80;99.90;;;;;;4955977;28;20043;-77
2022/07/11 01:38:41;;;;;;;0.22;0.22;;;14.80;99.90;;;;;;4954736;28;20557;-77
2022/07/11 01:41:07;;;;;;;0.40;0.40;;;14.80;99.90;;;;;;4952681;28;20071;-75
2022/07/11 01:43:33;;;;;;;0.20;0.20;;;14.80;99.90;;;;;;4946487;28;20100;-77
2022/07/11 01:46:04;;;;;;;0.55;0.55;;;14.80;99.90;;;;;;4954709;28;20112;-77
2022/07/11 01:48:30;;;;;;;0.30;0.30;;;14.80;99.90;;;;;;4962145;28;20483;-81
2022/07/11 01:50:56;;;;;;;;;;;14.80;99.90;;;;;;4953926;28;20051;-75
2022/07/11 01:53:22;;;;;;;0.30;0.30;;;14.80;99.90;;;;;;4943403;28;19919;-76
2022/07/11 01:55:47;;;;;;;;;;;14.80;99.90;;;;;;4963484;28;20050;-76
2022/07/11 01:58:13;;;;;;;0.30;0.30;;;14.80;99.90;;;;;;4964411;28;19972;-78
2022/07/11 02:00:39;;;;;;;0.30;0.30;;;14.80;99.90;;;;;;4937364;29;20086;-73
2022/07/11 02:03:05;;;;;;;0.10;0.10;;;14.80;99.90;;;;;;4940957;28;20051;-74
2022/07/11 02:05:31;;;;;;;0.30;0.30;;;14.80;99.90;;;;;;4958264;28;20146;-72
2022/07/11 02:08:12;;;;;;;0.30;0.30;;;14.80;99.90;;;;;;4957692;28;20115;-78
2022/07/11 02:10:43;;;;;;;0.45;0.45;;;14.80;99.90;;;;;;4949908;28;20649;-77
2022/07/11 02:13:09;;;;;;;0.20;0.20;;;14.80;99.90;;;;;;4955453;28;20137;-78
2022/07/11 02:15:35;;;;;;;0.50;0.50;;;14.80;99.90;;;;;;4955621;28;20059;-80
2022/07/11 02:18:01;;;;;;;;;;;14.80;99.90;;;;;;4960040;28;20050;-75
2022/07/11 02:20:27;;;;;;;0.50;0.50;;;14.80;99.90;;;;;;4958937;28;19918;-77
2022/07/11 02:22:53;;;;;;;0.30;0.30;;;14.80;99.90;;;;;;4974366;28;20043;-77
2022/07/11 02:25:21;;;;;;;;;;;14.80;99.90;;;;;;4935616;29;20554;-72
2022/07/11 02:27:46;;;;;;;0.20;0.20;;;14.80;99.90;;;;;;4964503;28;20275;-77
2022/07/11 02:30:12;;;;;;;1.27;1.27;;;14.80;99.90;;;;;;4957517;28;20085;-79
2022/07/11 02:32:38;;;;;;;;;;;14.80;99.90;;;;;;4941873;28;20035;-75
2022/07/11 02:35:05;;;;;;;0.38;0.38;;;14.80;99.90;;;;;;4963501;28;19957;-74
2022/07/11 02:37:31;;;;;;;0.30;0.30;;;14.80;99.90;;;;;;4942002;28;20125;-74
2022/07/11 02:39:57;;;;;;;0.28;0.28;;;14.80;99.90;;;;;;4951117;29;20047;-75
2022/07/11 02:42:23;;;;;;;0.40;0.40;;;14.80;99.90;;;;;;4955797;28;20503;-73
2022/07/11 02:44:49;;;;;;;;;;;14.80;99.90;;;;;;4952355;28;20077;-76
2022/07/11 02:47:14;;;;;;;0.30;0.30;;;14.80;99.90;;;;;;4956689;28;19922;-74
2022/07/11 02:49:41;;;;;;;0.25;0.25;;;14.80;99.90;;;;;;4947382;28;20638;-76
2022/07/11 02:52:08;;;;;;;0.30;0.30;;;14.80;99.90;;;;;;4941840;28;20174;-77
2022/07/11 02:54:33;;;;;;;0.50;0.50;;;14.80;99.90;;;;;;4954872;28;20043;-78
2022/07/11 02:56:59;;;;;;;0.40;0.40;;;14.80;99.90;;;;;;4945559;29;20185;-76
2022/07/11 02:59:26;;;;;;;0.20;0.20;;;14.80;99.90;;;;;;4940942;28;20043;-74
2022/07/11 03:01:58;;;;;;;0.25;0.25;;;14.80;99.90;;;;;;4962379;28;20054;-78
2022/07/11 03:04:24;;;;;;;0.40;0.40;;;14.80;99.90;;;;;;4964069;28;20043;-76
2022/07/11 03:06:51;;;;;;;0.45;0.45;;;14.80;99.90;;;;;;4940245;29;20047;-72
2022/07/11 03:09:16;;;;;;;0.30;0.30;;;14.80;99.90;;;;;;4944699;28;20483;-74
2022/07/11 03:11:42;;;;;;;0.30;0.30;;;14.80;99.90;;;;;;4938082;28;20047;-74
2022/07/11 03:14:09;;;;;;;;;;;14.80;99.90;;;;;;4944181;28;20100;-77
2022/07/11 03:16:34;;;;;;;0.40;0.40;;;14.80;99.90;;;;;;4956665;28;19919;-73
2022/07/11 03:19:00;;;;;;;0.80;0.60;;;14.80;99.90;;;;;;4973294;28;20047;-75
2022/07/11 03:21:28;;;;;;;;;;;14.80;99.90;;;;;;4965447;28;20054;-74
2022/07/11 03:23:53;;;;;;;;;;;14.80;99.90;;;;;;4958351;28;20288;-77
2022/07/11 03:26:19;;;;;;;0.40;0.40;;;14.80;99.90;;;;;;4959824;28;19973;-74
2022/07/11 03:28:44;;;;;;;0.30;0.30;;;14.80;99.90;;;;;;4967968;28;20102;-72
2022/07/11 03:31:10;;;;;;;0.40;0.40;;;14.80;99.90;;;;;;4965558;28;20411;-73
2022/07/11 03:33:36;;;;;;;;;;;14.80;99.90;;;;;;4964121;28;20396;-73
2022/07/11 03:36:02;;;;;;;0.57;0.57;;;14.80;99.90;;;;;;4958633;28;20363;-73
2022/07/11 03:38:28;;;;;;;0.38;0.38;;;14.80;99.90;;;;;;4965794;28;20145;-78
2022/07/11 03:40:56;;;;;;;0.30;0.30;;;14.80;99.90;;;;;;4950587;28;20136;-76
2022/07/11 03:43:22;;;;;;;0.82;0.60;;;14.80;99.90;;;;;;4958776;28;20047;-74
2022/07/11 03:45:53;;;;;;;0.25;0.25;;;14.80;99.90;;;;;;4942465;28;20058;-77
2022/07/11 03:48:19;;;;;;;0.30;0.30;;;14.80;99.90;;;;;;4951715;28;20047;-78
2022/07/11 03:50:45;;;;;;;;;;;14.80;99.90;;;;;;4949497;28;21562;-76
2022/07/11 03:53:10;;;;;;;0.40;0.40;;;14.80;99.90;;;;;;4955739;28;19919;-78
2022/07/11 03:55:37;;;;;;;;;;;14.80;99.90;;;;;;4934503;28;20117;-73
2022/07/11 03:58:03;;;;;;;0.30;0.30;;;14.80;99.90;;;;;;4943378;29;20391;-78
2022/07/11 04:00:29;;;;;;;;;;;14.80;99.90;;;;;;4951757;28;20090;-75
2022/07/11 04:02:54;;;;;;;0.22;0.22;;;14.80;99.90;;;;;;4956995;28;19968;-75
2022/07/11 04:05:20;;;;;;;0.20;0.20;;;14.80;99.90;;;;;;4950425;28;20073;-74
2022/07/11 04:07:46;;;;;;;;;;;14.80;99.90;;;;;;4925331;28;20097;-76
2022/07/11 04:10:12;;;;;;;0.30;0.30;;;14.80;99.90;;;;;;4962797;28;20333;-75
2022/07/11 04:12:38;;;;;;;0.30;0.30;;;14.90;99.90;;;;;;4956416;28;20032;-72
2022/07/11 04:15:06;;;;;;;0.20;0.20;;;14.90;99.90;;;;;;4956191;28;20077;-75
2022/07/11 04:17:33;;;;;;;0.40;0.40;;;14.90;99.90;;;;;;4960057;28;20043;-75
2022/07/11 04:19:59;;;;;;;0.20;0.20;;;14.90;99.90;;;;;;4963966;28;20051;-77
2022/07/11 04:22:26;;;;;;;0.28;0.28;;;14.90;99.90;;;;;;4946126;28;20051;-77
2022/07/11 04:24:58;;;;;;;0.30;0.30;;;15.00;99.90;;;;;;4962439;28;20050;-75
2022/07/11 04:27:29;;;;;;;0.30;0.30;;;14.90;99.90;;;;;;4942963;28;20046;-76
2022/07/11 04:29:55;;;;;;;0.20;0.20;;;14.90;99.90;;;;;;4951869;28;20069;-76
2022/07/11 04:32:20;;;;;;;0.25;0.25;;;15.00;99.90;;;;;;4946727;28;20051;-71
2022/07/11 04:34:49;;;;;;;0.20;0.20;;;14.90;99.90;;;;;;4965615;28;20043;-76
2022/07/11 04:37:15;;;;;;;;;;;14.90;99.90;;;;;;4961086;28;20035;-75
2022/07/11 04:39:41;;;;;;;0.40;0.40;;;14.90;99.90;;;;;;4963931;28;19926;-76
2022/07/11 04:42:06;;;;;;;0.30;0.30;;;14.90;99.90;;;;;;4962635;28;20103;-77
2022/07/11 04:44:35;;;;;;;0.30;0.30;;;14.90;99.90;;;;;;4963233;28;20085;-76
2022/07/11 04:47:01;;;;;;;0.30;0.30;;;14.90;99.90;;;;;;4965047;28;20447;-73
2022/07/11 04:49:35;;;;;;;1.70;0.60;;;15.00;99.90;;;;;;4956547;28;20109;-74
2022/07/11 04:52:01;;;;;;;0.50;0.50;;;15.00;99.90;;;;;;4952741;28;20043;-72
2022/07/11 04:54:28;;;;;;;0.20;0.20;;;15.00;99.90;;;;;;4947645;28;20057;-73
2022/07/11 04:57:00;;;;;;;0.40;0.40;;;15.00;99.90;;;;;;4957453;28;20153;-77
2022/07/11 04:59:26;;;;;;;0.40;0.40;;;15.10;99.90;;;;;;4960935;28;20373;-75
2022/07/11 05:01:52;;;;;;;0.30;0.30;;;15.10;99.90;;;;;;4961664;28;20203;-75
2022/07/11 05:04:17;;;;;;;;;;;15.20;99.90;;;;;;4958571;28;20071;-76
2022/07/11 05:06:43;;;;;;;0.30;0.30;;;15.30;99.90;;;;;;4961098;28;19957;-74
2022/07/11 05:09:10;;;;;;;;;;;15.30;99.90;;;;;;4962478;28;20047;-74
2022/07/11 05:11:36;;;;;;;0.30;0.30;;;15.40;99.90;;;;;;4958313;28;19926;-74
2022/07/11 05:14:01;;;;;;;;;;;15.40;99.90;;;;;;4941725;28;20043;-75
2022/07/11 05:16:27;;;;;;;0.20;0.20;;;15.60;99.90;;;;;;4960683;28;20267;-72
2022/07/11 05:18:53;;;;;;;0.40;0.40;;;15.60;99.90;;;;;;4969631;28;20101;-73
2022/07/11 05:21:23;;;;;;;0.30;0.30;;;15.70;99.90;;;;;;4961821;28;20439;-76
2022/07/11 05:23:49;;;;;;;0.40;0.40;;;15.70;99.90;;;;;;4968712;28;20085;-74
2022/07/11 05:26:15;;;;;;;0.30;0.30;;;15.80;99.90;;;;;;4955780;28;20448;-73
2022/07/11 05:28:41;;;;;;;0.50;0.50;;;15.90;99.90;;;;;;4952355;28;20398;-74
2022/07/11 05:31:13;;;;;;;0.30;0.30;;;15.90;99.90;;;;;;4956191;28;20104;-73
2022/07/11 05:33:38;;;;;;;0.17;0.17;;;15.90;99.90;;;;;;4956457;28;20038;-76
2022/07/11 05:36:04;;;;;;;;;;;15.90;99.90;;;;;;4958424;28;20042;-74
2022/07/11 05:38:33;;;;;;;0.32;0.32;;;15.90;99.90;;;;;;4961332;28;19925;-74
2022/07/11 05:40:59;;;;;;;0.52;0.52;;;15.90;99.90;;;;;;4960190;28;20126;-73
2022/07/11 05:43:27;;;;;;;0.32;0.32;;;15.90;99.90;;;;;;4953621;28;20059;-71
2022/07/11 05:45:53;;;;;;;0.20;0.20;;;15.90;99.90;;;;;;4956884;28;20039;-72
2022/07/11 05:48:19;;;;;;;;;;;15.80;99.90;;;;;;4953279;28;20058;-74
2022/07/11 05:50:46;;;;;;;0.30;0.30;;;15.90;99.90;;;;;;4962436;28;19919;-79
2022/07/11 05:53:12;;;;;;;0.30;0.30;;;15.80;99.90;;;;;;4954757;28;20046;-73
2022/07/11 05:55:38;;;;;;;0.22;0.22;;;15.90;99.90;;;;;;4960685;28;20459;-76
2022/07/11 05:58:04;;;;;;;0.30;0.30;;;15.90;99.90;;;;;;4959566;28;20177;-72
2022/07/11 06:00:29;;;;;;;;;;;16.00;99.90;;;;;;4960183;28;20480;-72
2022/07/11 06:02:55;;;;;;;0.30;0.30;;;16.10;99.90;;;;;;4952071;28;20028;-75
2022/07/11 06:05:21;;;;;;;0.40;0.40;;;16.20;99.90;;;;;;4954225;28;20059;-74
2022/07/11 06:10:32;;;;;;;0.30;0.30;;;16.30;99.90;;;;;;4952133;28;19918;-74
2022/07/11 06:12:58;;;;;;;0.20;0.20;;;16.40;99.90;;;;;;4955686;28;20128;-73
2022/07/11 06:15:24;;;;;;;;;;;16.40;99.90;;;;;;4964540;28;20049;-76
2022/07/11 06:17:54;;;;;;;0.20;0.20;;;16.40;99.90;;;;;;4963872;28;19931;-75
2022/07/11 06:20:19;;;;;;;0.20;0.20;;;16.50;99.90;;;;;;4959730;28;20051;-73
2022/07/11 06:22:45;;;;;;;0.20;0.20;;;16.50;99.90;;;;;;4951622;28;20050;-75
2022/07/11 06:25:12;;;;;;;;;;;16.60;99.90;;;;;;4966799;28;20050;-75
2022/07/11 06:27:38;;;;;;;0.20;0.20;;;16.70;99.90;;;;;;4946219;28;19926;-73
2022/07/11 06:30:11;;;;;;;;;;;16.80;99.90;;;;;;4961424;28;20094;-76
2022/07/11 06:32:39;;;;;;;0.30;0.30;;;16.90;99.90;;;;;;4972539;28;20393;-74
2022/07/11 06:35:07;;;;;;;0.30;0.30;;;17.10;99.90;;;;;;4962418;28;20074;-76
2022/07/11 06:37:33;;;;;;;0.30;0.30;;;17.20;99.90;;;;;;4941720;28;20054;-77
2022/07/11 06:39:59;;;;;;;0.30;0.30;;;17.20;99.90;;;;;;4974574;28;20081;-78
2022/07/11 06:42:27;;;;;;;;;;;17.20;99.90;;;;;;4976237;28;20382;-77
2022/07/11 06:44:54;;;;;;;0.20;0.20;;;17.10;99.90;;;;;;4955730;28;19944;-74
2022/07/11 06:47:20;;;;;;;0.30;0.30;;;17.10;99.90;;;;;;4964225;28;20504;-75
2022/07/11 06:49:45;;;;;;;;;;;17.20;99.90;;;;;;4972926;28;20039;-76
2022/07/11 06:52:20;;;;;;;0.30;0.30;;;17.20;99.90;;;;;;4967582;28;20017;-73
2022/07/11 06:54:45;;;;;;;;;;;17.10;99.90;;;;;;4957005;28;20054;-74
2022/07/11 06:57:14;;;;;;;0.30;0.30;;;17.00;99.90;;;;;;4958711;28;19925;-74
2022/07/11 06:59:39;;;;;;;;;;;17.00;99.90;;;;;;4966987;28;20043;-72
2022/07/11 07:02:05;;;;;;;0.30;0.30;;;17.10;99.90;;;;;;4957472;28;19968;-74
2022/07/11 07:04:31;;;;;;;0.20;0.20;;;17.20;99.90;;;;;;4956793;28;20058;-74
2022/07/11 07:06:59;;;;;;;;;;;17.30;99.90;;;;;;4958488;28;20074;-77
2022/07/11 07:09:29;;;;;;;0.30;0.30;;;17.30;99.90;;;;;;4958635;28;19934;-75
2022/07/11 07:11:55;;;;;;;;;;;17.40;99.90;;;;;;4939773;28;20127;-74
2022/07/11 07:14:21;;;;;;;0.30;0.30;;;17.60;99.90;;;;;;4958973;28;20351;-71
2022/07/11 07:16:47;;;;;;;0.20;0.20;;;17.70;99.90;;;;;;4950509;28;20058;-75
2022/07/11 07:19:13;;;;;;;;;;;17.90;99.90;;;;;;4966489;28;20128;-71
2022/07/11 07:21:39;;;;;;;0.30;0.30;;;18.00;99.90;;;;;;4964223;28;19957;-75
2022/07/11 07:24:05;;;;;;;;;;;18.30;99.90;;;;;;4968120;28;20139;-75
2022/07/11 07:26:32;;;;;;;0.40;0.40;;;18.60;99.90;;;;;;4966343;28;19926;-75
2022/07/11 07:28:58;;;;;;;0.20;0.20;;;18.60;99.90;;;;;;4935496;28;20054;-71
2022/07/11 07:31:24;;;;;;;;;;;18.60;99.90;;;;;;4952013;28;20078;-74
2022/07/11 07:33:51;;;;;;;1.15;0.57;;;18.60;99.90;;;;;;4970920;28;19964;-70
2022/07/11 07:36:18;;;;;;;0.20;0.20;;;18.60;99.90;;;;;;4951475;28;20043;-76
2022/07/11 07:38:46;;;;;;;0.20;0.20;;;18.50;99.90;;;;;;4933627;28;20057;-75
2022/07/11 07:41:14;;;;;;;0.30;0.30;;;18.40;99.90;;;;;;4961561;28;20095;-78
2022/07/11 07:43:41;;;;;;;0.20;0.20;;;18.40;99.90;;;;;;4957900;28;20050;-74
2022/07/11 07:46:10;;;;;;;0.20;0.20;;;18.30;99.90;;;;;;4956898;28;20057;-80
2022/07/11 07:48:37;;;;;;;1.75;0.85;;;18.60;99.90;;;;;;4938318;29;20126;-77
2022/07/11 07:51:05;;;;;;;0.32;0.32;;;18.70;99.90;;;;;;4958000;28;20330;-78
2022/07/11 07:53:37;;;;;;;0.20;0.20;;;18.50;99.90;;;;;;4925475;29;20039;-79
2022/07/11 07:56:04;;;;;;;0.20;0.20;;;18.40;99.90;;;;;;4943127;28;20526;-79
2022/07/11 07:58:30;;;;;;;0.20;0.20;;;18.20;99.90;;;;;;4954907;28;20140;-79
2022/07/11 08:03:43;;;;;;;0.20;0.20;;;18.20;99.90;;;;;;4956415;28;19922;-79
2022/07/11 08:06:09;;;;;;;;;;;18.20;99.90;;;;;;4934212;28;20066;-76
2022/07/11 08:08:35;;;;;;;0.20;0.20;;;18.20;99.90;;;;;;4962086;28;19922;-74
2022/07/11 08:11:02;;;;;;;0.20;0.20;;;18.30;99.90;;;;;;4956295;28;20134;-78
2022/07/11 08:13:33;;;;;;;0.20;0.20;;;18.50;99.90;;;;;;4953379;28;20177;-75
2022/07/11 08:16:00;;;;;;;;;;;18.60;99.90;;;;;;4950595;28;20161;-75
2022/07/11 08:18:26;;;;;;;0.30;0.30;;;18.60;99.90;;;;;;4946567;28;20084;-81
2022/07/11 08:20:58;;;;;;;0.20;0.20;;;18.50;99.90;;;;;;4950575;28;20047;-77
2022/07/11 08:23:24;;;;;;;0.20;0.20;;;18.40;99.90;;;;;;4936479;29;20051;-76
2022/07/11 08:25:53;;;;;;;0.20;0.20;;;18.30;99.90;;;;;;4949124;28;20384;-79
2022/07/11 08:28:18;;;;;;;0.30;0.30;;;18.10;99.90;;;;;;4941631;29;20473;-82
2022/07/11 08:30:45;;;;;;;;;;;18.00;99.90;;;;;;4958603;28;20148;-75
2022/07/11 08:33:11;;;;;;;0.20;0.20;;;17.90;99.90;;;;;;4952574;28;19965;-77
2022/07/11 08:35:37;;;;;;;0.20;0.20;;;17.90;99.90;;;;;;4959580;28;20051;-77
2022/07/11 08:38:03;;;;;;;;;;;18.00;99.90;;;;;;4949346;29;20051;-78
2022/07/11 08:40:28;;;;;;;0.20;0.20;;;18.00;99.90;;;;;;4948915;28;20395;-77
2022/07/11 08:42:55;;;;;;;;;;;18.10;99.90;;;;;;4950600;28;20093;-78
2022/07/11 08:45:28;;;;;;;0.20;0.20;;;18.20;99.90;;;;;;4937093;28;19926;-76
2022/07/11 08:47:57;;;;;;;0.20;0.20;;;18.20;99.90;;;;;;4940887;28;20046;-78
2022/07/11 08:50:27;;;;;;;0.20;0.20;;;18.30;99.90;;;;;;4954414;28;20129;-77
2022/07/11 08:52:58;;;;;;;0.20;0.20;;;18.40;99.90;;;;;;4954050;28;20070;-81
2022/07/11 08:55:25;;;;;;;0.30;0.30;;;18.40;99.90;;;;;;4954514;28;20075;-77
2022/07/11 08:57:58;;;;;;;0.20;0.20;;;18.50;99.90;;;;;;4956287;28;20062;-77
2022/07/11 09:00:25;;;;;;;0.20;0.20;;;18.60;99.90;;;;;;4961766;28;20153;-76
2022/07/11 09:02:53;;;;;;;0.20;0.20;;;18.50;99.90;;;;;;4954140;28;20486;-77
2022/07/11 09:05:19;;;;;;;0.30;0.30;;;18.50;99.90;;;;;;4942405;28;21205;-76
2022/07/11 09:07:46;;;;;;;;;;;18.40;99.90;;;;;;4959283;28;20055;-77
2022/07/11 09:10:13;;;;;;;0.20;0.20;;;18.40;99.90;;;;;;4962304;28;19972;-79
2022/07/11 09:13:05;;;;;;;0.13;0.13;;;18.50;99.90;;;;;;4955495;28;20138;-80
2022/07/11 09:15:40;;;;;;;0.15;0.15;;;18.50;99.90;;;;;;4958688;28;20046;-75
2022/07/11 09:18:24;;;;;;;0.20;0.20;;;18.70;99.90;;;;;;4951023;28;20492;-77
2022/07/11 09:26:52;;;;;;;0.65;0.55;;;18.90;99.90;;;;;;4958643;28;20058;-76
2022/07/11 09:29:25;;;;;;;0.22;0.22;;;18.80;99.90;;;;;;4953443;28;20043;-75
2022/07/11 09:31:52;;;;;;;0.30;0.30;;;18.60;99.90;;;;;;4972166;28;20046;-77
2022/07/11 09:34:26;;;;;;;0.10;0.10;;;18.50;99.90;;;;;;4944245;28;20042;-79
2022/07/11 09:36:55;;;;;;;0.20;0.20;;;18.40;99.90;;;;;;4956629;28;20090;-77
2022/07/11 09:39:27;;;;;;;0.20;0.20;;;18.20;99.90;;;;;;4954431;28;20122;-78
2022/07/11 09:41:53;;;;;;;0.30;0.30;;;18.20;99.90;;;;;;4949234;28;20043;-78
2022/07/11 09:44:33;;;;;;;0.20;0.20;;;18.20;99.90;;;;;;4959167;28;20744;-79
2022/07/11 09:47:00;;;;;;;0.20;0.20;;;18.30;99.90;;;;;;4951840;28;20093;-78
2022/07/11 09:49:37;;;;;;;0.20;0.20;;;18.30;99.90;;;;;;4958435;28;20153;-79
2022/07/11 09:52:15;;;;;;;0.30;0.30;;;18.40;99.90;;;;;;4942455;28;20053;-75
2022/07/11 09:54:57;;;;;;;0.20;0.20;;;18.50;99.90;;;;;;4942997;28;20076;-80
2022/07/11 09:57:39;;;;;;;0.10;0.10;;;18.50;99.90;;;;;;4956484;28;20069;-79
2022/07/11 10:00:11;;;;;;;0.38;0.38;;;18.50;99.90;;;;;;4961907;28;20098;-81
2022/07/11 10:02:38;;;;;;;0.20;0.20;;;18.30;99.90;;;;;;4952985;28;20047;-77
2022/07/11 10:05:15;;;;;;;0.22;0.22;;;18.30;99.90;;;;;;4943230;28;20109;-78
2022/07/11 10:07:45;;;;;;;0.32;0.32;;;18.20;99.90;;;;;;4965078;28;20462;-79
2022/07/11 10:10:11;;;;;;;0.20;0.20;;;18.20;99.90;;;;;;4965412;28;20126;-78
2022/07/11 10:12:37;;;;;;;;;;;18.20;99.90;;;;;;4940414;28;20106;-75
2022/07/11 10:15:07;;;;;;;0.22;0.22;;;18.30;99.90;;;;;;4936413;28;19968;-79
2022/07/11 10:17:55;;;;;;;0.20;0.20;;;18.30;99.90;;;;;;4960976;28;20366;-76
2022/07/11 10:21:04;;;;;;;0.25;0.25;;;18.40;99.90;;;;;;4964513;28;20031;-73
2022/07/11 10:23:59;;;;;;;0.22;0.22;;;18.50;99.90;;;;;;4922929;28;20066;-74
2022/07/11 10:26:40;;;;;;;0.20;0.20;;;18.70;99.90;;;;;;4976577;28;20051;-72
2022/07/11 10:29:22;;;;;;;0.30;0.30;;;18.70;99.90;;;;;;4976339;28;20058;-73
2022/07/11 10:32:11;;;;;;;0.20;0.20;;;18.70;99.90;;;;;;4980863;28;20047;-72
2022/07/11 10:34:38;;;;;;;1.20;0.65;;;18.70;99.90;;;;;;4967311;28;20105;-74
2022/07/11 10:37:06;;;;;;;0.30;0.30;;;18.60;99.90;;;;;;4957205;28;20388;-75
2022/07/11 10:39:34;;;;;;;0.28;0.28;;;18.60;99.90;;;;;;4964457;28;20055;-74
2022/07/11 10:42:21;;;;;;;0.30;0.30;;;18.50;99.90;;;;;;4960034;28;20081;-76
2022/07/11 10:44:53;;;;;;;0.20;0.20;;;18.40;99.90;;;;;;4960386;28;20501;-75
2022/07/11 10:47:43;;;;;;;0.20;0.20;;;18.50;99.90;;;;;;4955562;28;20050;-75
2022/07/11 10:50:21;;;;;;;0.65;0.57;;;18.60;99.90;;;;;;4965139;28;20138;-76
2022/07/11 10:52:49;;;;;;;0.20;0.20;;;18.70;99.90;;;;;;4946284;28;20097;-74
2022/07/11 10:55:36;;;;;;;0.30;0.30;;;18.90;99.90;;;;;;4939593;29;20130;-76
2022/07/11 10:58:28;;;;;;;0.30;0.30;;;19.00;99.90;;;;;;4961910;28;20058;-83
2022/07/11 11:01:15;;;;;;;0.20;0.20;;;19.60;99.90;;;;;;4969611;28;20050;-79
2022/07/11 11:03:43;;;;;;;0.20;0.20;;;19.40;99.90;;;;;;4954456;28;20051;-74
2022/07/11 11:06:10;;;;;;;0.15;0.15;;;19.30;99.90;;;;;;4957960;28;20174;-80
2022/07/11 11:08:57;;;;;;;0.30;0.30;;;19.20;99.90;;;;;;4960591;28;20077;-78
2022/07/11 11:11:23;;;;;;;0.30;0.30;;;19.20;99.90;;;;;;4957545;28;20039;-80
2022/07/11 11:14:21;;;;;;;0.10;0.10;;;19.30;99.90;;;;;;4954290;28;20047;-75
2022/07/11 11:16:48;;;;;;;0.20;0.20;;;19.40;99.90;;;;;;4961430;28;20047;-80
2022/07/11 11:19:51;;;;;;;0.20;0.20;;;19.50;99.90;;;;;;4938922;28;20054;-75
2022/07/11 11:22:19;;;;;;;0.30;0.30;;;19.60;99.90;;;;;;4957210;28;20061;-76
2022/07/11 11:24:47;;;;;;;0.20;0.20;;;19.70;99.90;;;;;;4949415;28;20059;-82
2022/07/11 11:27:19;;;;;;;0.25;0.25;;;19.80;99.90;;;;;;4944886;28;20133;-81
2022/07/11 11:29:45;;;;;;;0.30;0.30;;;19.70;99.90;;;;;;4957237;28;20504;-80
2022/07/11 11:32:11;;;;;;;0.30;0.30;;;19.70;99.90;;;;;;4959114;28;20126;-80
2022/07/11 11:34:43;;;;;;;0.22;0.22;;;19.70;99.90;;;;;;4940225;28;20063;-79
2022/07/11 11:37:09;;;;;;;0.28;0.28;;;19.60;99.90;;;;;;4954363;28;20481;-74
2022/07/11 11:39:39;;;;;;;0.30;0.30;;;19.50;99.90;;;;;;4947434;28;20073;-79
2022/07/11 11:42:31;;;;;;;0.20;0.20;;;19.60;99.90;;;;;;4940259;28;20130;-72
2022/07/11 11:45:04;;;;;;;0.30;0.30;;;19.50;99.90;;;;;;4962111;28;20062;-74
2022/07/11 11:47:31;;;;;;;0.30;0.30;;;19.30;99.90;;;;;;4955564;28;20507;-79
2022/07/11 11:50:03;;;;;;;0.20;0.20;;;19.30;99.90;;;;;;4960012;28;20486;-77
2022/07/11 11:52:32;;;;;;;0.30;0.30;;;19.30;99.90;;;;;;4935025;28;20078;-77
2022/07/11 11:54:58;;;;;;;0.30;0.30;;;19.50;99.90;;;;;;4960994;28;20148;-77
2022/07/11 11:57:26;;;;;;;0.20;0.20;;;19.80;99.90;;;;;;4932610;28;20046;-78
2022/07/11 11:59:52;;;;;;;0.20;0.20;;;19.90;99.90;;;;;;4952703;28;20035;-74
2022/07/11 12:02:30;;;;;;;0.20;0.20;;;19.90;99.90;;;;;;4959802;28;20469;-80
2022/07/11 12:04:57;;;;;;;0.20;0.20;;;19.80;99.90;;;;;;4934954;28;20106;-77
2022/07/11 12:07:36;;;;;;;0.30;0.30;;;19.70;99.90;;;;;;4966786;28;20117;-78
2022/07/11 12:10:04;;;;;;;0.30;0.30;;;19.70;99.90;;;;;;4951898;28;20098;-81
2022/07/11 12:12:47;;;;;;;0.20;0.20;;;19.70;99.90;;;;;;4946002;28;20480;-79
2022/07/11 12:15:28;;;;;;;0.20;0.20;;;19.70;99.90;;;;;;4951051;28;20130;-79
2022/07/11 12:17:59;;;;;;;0.77;0.77;;;19.70;99.90;;;;;;4952310;28;20058;-79
2022/07/11 12:20:40;;;;;;;0.20;0.20;;;19.80;99.90;;;;;;4952495;28;20069;-81
2022/07/11 12:23:07;;;;;;;0.20;0.20;;;19.70;99.90;;;;;;4957943;28;20112;-78
2022/07/11 12:25:34;;;;;;;0.38;0.30;;;19.70;99.90;;;;;;4959037;28;20150;-78
2022/07/11 12:28:00;;;;;;;0.20;0.20;;;19.70;99.90;;;;;;4957373;28;20050;-79
2022/07/11 12:30:26;;;;;;;0.20;0.20;;;19.80;99.90;;;;;;4940108;28;20049;-76
2022/07/11 12:33:15;;;;;;;0.28;0.28;;;19.80;99.90;;;;;;4963967;28;20069;-79
2022/07/11 12:36:01;;;;;;;0.17;0.17;;;19.80;99.90;;;;;;4938283;28;20473;-76
2022/07/11 12:38:51;;;;;;;0.20;0.20;;;19.70;99.90;;;;;;4941760;28;20051;-79
2022/07/11 12:41:17;;;;;;;0.30;0.30;;;19.60;99.90;;;;;;4960852;28;20484;-78
2022/07/11 12:46:36;;;;;;;0.20;0.20;;;19.80;99.90;;;;;;4956995;28;20053;-78
2022/07/11 12:49:06;;;;;;;0.20;0.20;;;19.90;99.90;;;;;;4955829;28;20055;-79
2022/07/11 12:51:40;;;;;;;0.30;0.30;;;19.90;99.90;;;;;;4939754;28;20058;-82
2022/07/11 12:54:11;;;;;;;0.20;0.20;;;19.90;99.90;;;;;;4942449;28;20137;-81
2022/07/11 12:56:39;;;;;;;0.50;0.50;;;19.90;99.90;;;;;;4959733;28;20047;-77
2022/07/11 12:59:06;;;;;;;0.30;0.30;;;20.10;99.90;;;;;;4935206;28;20051;-76
2022/07/11 13:01:33;;;;;;;0.20;0.20;;;20.30;99.90;;;;;;4993759;28;20503;-79
2022/07/11 13:04:00;;;;;;;0.20;0.20;;;20.50;99.90;;;;;;4972655;28;20042;-79
2022/07/11 13:09:15;;;;;;;0.30;0.30;;;20.50;99.90;;;;;;4958234;28;20043;-77
2022/07/11 13:11:41;;;;;;;0.30;0.30;;;20.40;99.90;;;;;;4955549;28;20097;-81
2022/07/11 13:16:57;;;;;;;0.20;0.20;;;20.30;99.90;;;;;;4950638;28;20134;-83
2022/07/11 13:19:23;;;;;;;0.22;0.22;;;20.30;99.90;;;;;;4933968;29;20447;-83
2022/07/11 13:21:49;;;;;;;;;;;20.30;99.90;;;;;;4960196;28;20061;-78
2022/07/11 13:24:14;;;;;;;0.20;0.20;;;20.30;99.90;;;;;;4965858;28;19918;-80
2022/07/11 13:26:40;;;;;;;;;;;20.10;99.90;;;;;;4966983;28;20047;-80
2022/07/11 13:29:08;;;;;;;0.20;0.20;;;20.00;99.90;;;;;;4964375;28;19976;-83